Terminal Aerodrome Forecast
Issued by NWS Greer, SC

Home | Current Version | Previous Version | Text Only | Print | Product List | Glossary On
Versions: 1 2 3 4 5 6 7 8 9 10 11 12 13 14 15 16 17 18 19 20 21 22 23 24 25 26 27 28 29 30 31 32 33 34 35 36 37 38 39 40 41
000
FTUS42 KGSP 271132
TAFCLT
TAF
KCLT 271132Z 2712/2812 23005KT P6SM FEW090 FEW250
     FM271700 23008KT P6SM SCT060 SCT200
      TEMPO 2720/2724 VRB10G15KT 4SM -TSRA BKN060CB BKN120
     FM280200 21004KT P6SM BKN070
     FM281100 24003KT P6SM SCT150=

USA.gov is the U.S. government's official web portal to all federal, state and local government web resources and services.